sensor_id;sensor_type;location;lat;lon;timestamp;pressure;altitude;pressure_sealevel;temperature
63689;BMP280;54895;40.928;14.480;2022-08-01T00:00:16;101138.75;;;31.52
63689;BMP280;54895;40.928;14.480;2022-08-01T00:02:43;101128.41;;;31.50
63689;BMP280;54895;40.928;14.480;2022-08-01T00:08:53;101137.94;;;31.46
63689;BMP280;54895;40.928;14.480;2022-08-01T00:11:20;101134.66;;;31.53
63689;BMP280;54895;40.928;14.480;2022-08-01T00:13:47;101138.91;;;31.60
63689;BMP280;54895;40.928;14.480;2022-08-01T00:16:14;101137.59;;;31.63
63689;BMP280;54895;40.928;14.480;2022-08-01T00:18:41;101133.78;;;31.45
63689;BMP280;54895;40.928;14.480;2022-08-01T00:21:08;101136.78;;;31.56
63689;BMP280;54895;40.928;14.480;2022-08-01T00:23:36;101135.41;;;31.57
63689;BMP280;54895;40.928;14.480;2022-08-01T00:26:02;101136.69;;;31.52
63689;BMP280;54895;40.928;14.480;2022-08-01T00:28:29;101136.63;;;31.48
63689;BMP280;54895;40.928;14.480;2022-08-01T00:30:56;101136.09;;;31.58
63689;BMP280;54895;40.928;14.480;2022-08-01T00:33:22;101136.66;;;31.50
63689;BMP280;54895;40.928;14.480;2022-08-01T00:35:50;101118.56;;;31.08
63689;BMP280;54895;40.928;14.480;2022-08-01T00:38:16;101122.94;;;31.52
63689;BMP280;54895;40.928;14.480;2022-08-01T00:40:43;101124.88;;;31.46
63689;BMP280;54895;40.928;14.480;2022-08-01T00:43:10;101130.53;;;31.23
63689;BMP280;54895;40.928;14.480;2022-08-01T00:45:37;101109.66;;;31.10
63689;BMP280;54895;40.928;14.480;2022-08-01T00:48:04;101119.63;;;31.27
63689;BMP280;54895;40.928;14.480;2022-08-01T00:50:30;101136.03;;;31.23
63689;BMP280;54895;40.928;14.480;2022-08-01T00:52:58;101127.13;;;30.93
63689;BMP280;54895;40.928;14.480;2022-08-01T00:55:27;101118.59;;;30.79
63689;BMP280;54895;40.928;14.480;2022-08-01T00:57:54;101118.97;;;30.97
63689;BMP280;54895;40.928;14.480;2022-08-01T01:00:23;101127.50;;;31.09
63689;BMP280;54895;40.928;14.480;2022-08-01T01:02:52;101113.56;;;31.01
63689;BMP280;54895;40.928;14.480;2022-08-01T01:17:17;101132.78;;;30.42
63689;BMP280;54895;40.928;14.480;2022-08-01T01:19:48;101122.72;;;30.25
63689;BMP280;54895;40.928;14.480;2022-08-01T01:22:22;101129.78;;;29.81
63689;BMP280;54895;40.928;14.480;2022-08-01T01:25:08;101130.34;;;30.01
63689;BMP280;54895;40.928;14.480;2022-08-01T01:27:45;101132.19;;;30.20
63689;BMP280;54895;40.928;14.480;2022-08-01T01:30:15;101134.03;;;30.12
63689;BMP280;54895;40.928;14.480;2022-08-01T01:32:48;101122.09;;;29.76
63689;BMP280;54895;40.928;14.480;2022-08-01T01:35:32;101132.16;;;30.18
63689;BMP280;54895;40.928;14.480;2022-08-01T01:38:21;101128.91;;;30.00
63689;BMP280;54895;40.928;14.480;2022-08-01T01:40:50;101119.25;;;29.97
63689;BMP280;54895;40.928;14.480;2022-08-01T01:43:18;101123.75;;;30.12
63689;BMP280;54895;40.928;14.480;2022-08-01T01:45:47;101119.28;;;30.25
63689;BMP280;54895;40.928;14.480;2022-08-01T01:48:19;101122.47;;;30.15
63689;BMP280;54895;40.928;14.480;2022-08-01T01:50:47;101126.84;;;29.99
63689;BMP280;54895;40.928;14.480;2022-08-01T01:53:18;101128.22;;;30.00
63689;BMP280;54895;40.928;14.480;2022-08-01T01:55:48;101117.81;;;29.71
63689;BMP280;54895;40.928;14.480;2022-08-01T01:58:17;101115.81;;;29.73
63689;BMP280;54895;40.928;14.480;2022-08-01T02:00:47;101119.88;;;29.70
63689;BMP280;54895;40.928;14.480;2022-08-01T02:03:16;101117.50;;;29.84
63689;BMP280;54895;40.928;14.480;2022-08-01T02:09:07;101104.19;;;30.00
63689;BMP280;54895;40.928;14.480;2022-08-01T02:11:36;101112.84;;;29.89
63689;BMP280;54895;40.928;14.480;2022-08-01T02:14:05;101109.44;;;29.44
63689;BMP280;54895;40.928;14.480;2022-08-01T02:16:36;101101.44;;;29.98
63689;BMP280;54895;40.928;14.480;2022-08-01T02:19:04;101112.56;;;30.04
63689;BMP280;54895;40.928;14.480;2022-08-01T02:21:45;101114.75;;;30.35
63689;BMP280;54895;40.928;14.480;2022-08-01T02:24:17;101112.34;;;30.49
63689;BMP280;54895;40.928;14.480;2022-08-01T02:26:49;101108.28;;;30.52
63689;BMP280;54895;40.928;14.480;2022-08-01T02:29:22;101107.66;;;30.83
63689;BMP280;54895;40.928;14.480;2022-08-01T02:31:49;101112.81;;;30.98
63689;BMP280;54895;40.928;14.480;2022-08-01T02:34:18;101101.19;;;31.00
63689;BMP280;54895;40.928;14.480;2022-08-01T02:36:46;101104.53;;;30.96
63689;BMP280;54895;40.928;14.480;2022-08-01T02:39:17;101105.97;;;31.31
63689;BMP280;54895;40.928;14.480;2022-08-01T02:41:48;101110.03;;;31.28
63689;BMP280;54895;40.928;14.480;2022-08-01T02:44:30;101094.44;;;31.05
63689;BMP280;54895;40.928;14.480;2022-08-01T02:47:00;101094.13;;;30.93
63689;BMP280;54895;40.928;14.480;2022-08-01T02:49:35;101086.22;;;30.75
63689;BMP280;54895;40.928;14.480;2022-08-01T02:52:05;101100.88;;;30.86
63689;BMP280;54895;40.928;14.480;2022-08-01T02:54:34;101103.91;;;30.98
63689;BMP280;54895;40.928;14.480;2022-08-01T02:57:02;101111.31;;;30.62
63689;BMP280;54895;40.928;14.480;2022-08-01T02:59:31;101097.09;;;30.17
63689;BMP280;54895;40.928;14.480;2022-08-01T03:02:01;101110.09;;;30.14
63689;BMP280;54895;40.928;14.480;2022-08-01T03:04:33;101112.06;;;30.37
63689;BMP280;54895;40.928;14.480;2022-08-01T03:09:44;101129.59;;;30.52
63689;BMP280;54895;40.928;14.480;2022-08-01T03:12:15;101123.06;;;30.39
63689;BMP280;54895;40.928;14.480;2022-08-01T03:14:44;101129.06;;;30.59
63689;BMP280;54895;40.928;14.480;2022-08-01T03:17:11;101119.09;;;30.44
63689;BMP280;54895;40.928;14.480;2022-08-01T03:19:39;101121.72;;;30.97
63689;BMP280;54895;40.928;14.480;2022-08-01T03:22:08;101125.31;;;30.74
63689;BMP280;54895;40.928;14.480;2022-08-01T03:24:38;101133.66;;;30.51
63689;BMP280;54895;40.928;14.480;2022-08-01T03:27:06;101124.56;;;30.17
63689;BMP280;54895;40.928;14.480;2022-08-01T03:29:34;101116.41;;;30.46
63689;BMP280;54895;40.928;14.480;2022-08-01T03:32:02;101127.69;;;30.58
63689;BMP280;54895;40.928;14.480;2022-08-01T03:34:30;101130.69;;;30.41
63689;BMP280;54895;40.928;14.480;2022-08-01T03:37:11;101138.19;;;30.38
63689;BMP280;54895;40.928;14.480;2022-08-01T03:39:48;101142.66;;;30.26
63689;BMP280;54895;40.928;14.480;2022-08-01T03:42:20;101142.47;;;30.45
63689;BMP280;54895;40.928;14.480;2022-08-01T03:44:54;101137.47;;;30.65
63689;BMP280;54895;40.928;14.480;2022-08-01T03:47:28;101134.41;;;30.53
63689;BMP280;54895;40.928;14.480;2022-08-01T03:49:56;101145.72;;;30.65
63689;BMP280;54895;40.928;14.480;2022-08-01T03:52:25;101141.06;;;30.44
63689;BMP280;54895;40.928;14.480;2022-08-01T03:54:55;101132.09;;;30.16
63689;BMP280;54895;40.928;14.480;2022-08-01T03:57:23;101139.72;;;30.45
63689;BMP280;54895;40.928;14.480;2022-08-01T03:59:56;101145.44;;;30.55
63689;BMP280;54895;40.928;14.480;2022-08-01T04:02:25;101147.59;;;30.31
63689;BMP280;54895;40.928;14.480;2022-08-01T04:04:53;101140.19;;;30.36
63689;BMP280;54895;40.928;14.480;2022-08-01T04:07:32;101141.84;;;30.49
63689;BMP280;54895;40.928;14.480;2022-08-01T04:09:59;101153.78;;;30.57
63689;BMP280;54895;40.928;14.480;2022-08-01T04:12:26;101140.94;;;30.40
63689;BMP280;54895;40.928;14.480;2022-08-01T04:14:53;101144.00;;;29.99
63689;BMP280;54895;40.928;14.480;2022-08-01T04:17:20;101144.59;;;29.96
63689;BMP280;54895;40.928;14.480;2022-08-01T04:19:47;101148.28;;;30.06
63689;BMP280;54895;40.928;14.480;2022-08-01T04:22:15;101149.00;;;30.07
63689;BMP280;54895;40.928;14.480;2022-08-01T04:24:46;101140.13;;;29.83
63689;BMP280;54895;40.928;14.480;2022-08-01T04:27:28;101144.31;;;30.11
63689;BMP280;54895;40.928;14.480;2022-08-01T04:29:58;101153.75;;;30.04
63689;BMP280;54895;40.928;14.480;2022-08-01T04:32:28;101138.75;;;30.07
63689;BMP280;54895;40.928;14.480;2022-08-01T04:34:58;101162.25;;;30.40
63689;BMP280;54895;40.928;14.480;2022-08-01T04:37:28;101157.31;;;30.36
63689;BMP280;54895;40.928;14.480;2022-08-01T04:39:56;101149.25;;;30.42
63689;BMP280;54895;40.928;14.480;2022-08-01T04:42:25;101152.47;;;30.60
63689;BMP280;54895;40.928;14.480;2022-08-01T04:44:54;101168.69;;;31.07
63689;BMP280;54895;40.928;14.480;2022-08-01T04:47:21;101166.16;;;31.17
63689;BMP280;54895;40.928;14.480;2022-08-01T04:49:50;101151.41;;;31.02
63689;BMP280;54895;40.928;14.480;2022-08-01T04:52:17;101154.13;;;31.32
63689;BMP280;54895;40.928;14.480;2022-08-01T04:54:47;101170.34;;;31.20
63689;BMP280;54895;40.928;14.480;2022-08-01T04:57:13;101184.25;;;31.26
63689;BMP280;54895;40.928;14.480;2022-08-01T04:59:43;101188.69;;;31.09
63689;BMP280;54895;40.928;14.480;2022-08-01T05:02:15;101186.78;;;31.16
63689;BMP280;54895;40.928;14.480;2022-08-01T05:04:43;101170.50;;;31.26
63689;BMP280;54895;40.928;14.480;2022-08-01T05:09:58;101184.09;;;31.20
63689;BMP280;54895;40.928;14.480;2022-08-01T05:12:24;101194.56;;;31.56
63689;BMP280;54895;40.928;14.480;2022-08-01T05:14:51;101186.19;;;31.50
63689;BMP280;54895;40.928;14.480;2022-08-01T05:17:18;101193.16;;;31.55
63689;BMP280;54895;40.928;14.480;2022-08-01T05:19:45;101182.31;;;31.63
63689;BMP280;54895;40.928;14.480;2022-08-01T05:22:12;101186.59;;;31.70
63689;BMP280;54895;40.928;14.480;2022-08-01T05:24:40;101189.00;;;31.88
63689;BMP280;54895;40.928;14.480;2022-08-01T05:27:07;101196.25;;;31.73
63689;BMP280;54895;40.928;14.480;2022-08-01T05:29:36;101197.09;;;32.15
63689;BMP280;54895;40.928;14.480;2022-08-01T05:32:03;101190.09;;;32.08
63689;BMP280;54895;40.928;14.480;2022-08-01T05:34:30;101196.59;;;32.64
63689;BMP280;54895;40.928;14.480;2022-08-01T05:36:56;101199.00;;;32.85
63689;BMP280;54895;40.928;14.480;2022-08-01T05:39:23;101193.63;;;32.52
63689;BMP280;54895;40.928;14.480;2022-08-01T05:41:49;101188.97;;;32.21
63689;BMP280;54895;40.928;14.480;2022-08-01T05:44:17;101193.78;;;32.62
63689;BMP280;54895;40.928;14.480;2022-08-01T05:46:43;101188.75;;;32.92
63689;BMP280;54895;40.928;14.480;2022-08-01T05:49:10;101190.00;;;32.83
63689;BMP280;54895;40.928;14.480;2022-08-01T05:51:36;101192.97;;;32.97
63689;BMP280;54895;40.928;14.480;2022-08-01T05:54:03;101200.66;;;33.53
63689;BMP280;54895;40.928;14.480;2022-08-01T05:56:31;101201.91;;;33.46
63689;BMP280;54895;40.928;14.480;2022-08-01T05:58:57;101188.91;;;33.02
63689;BMP280;54895;40.928;14.480;2022-08-01T06:01:24;101202.91;;;33.16
63689;BMP280;54895;40.928;14.480;2022-08-01T06:03:51;101205.72;;;33.73
63689;BMP280;54895;40.928;14.480;2022-08-01T06:09:52;101206.00;;;34.01
63689;BMP280;54895;40.928;14.480;2022-08-01T06:12:19;101204.88;;;34.27
63689;BMP280;54895;40.928;14.480;2022-08-01T06:14:46;101197.44;;;34.44
63689;BMP280;54895;40.928;14.480;2022-08-01T06:17:13;101192.06;;;34.64
63689;BMP280;54895;40.928;14.480;2022-08-01T06:19:39;101204.66;;;34.87
63689;BMP280;54895;40.928;14.480;2022-08-01T06:22:06;101208.59;;;34.54
63689;BMP280;54895;40.928;14.480;2022-08-01T06:24:33;101216.22;;;34.59
63689;BMP280;54895;40.928;14.480;2022-08-01T06:27:01;101215.00;;;34.84
63689;BMP280;54895;40.928;14.480;2022-08-01T06:29:30;101208.78;;;34.82
63689;BMP280;54895;40.928;14.480;2022-08-01T06:31:58;101188.00;;;34.79
63689;BMP280;54895;40.928;14.480;2022-08-01T06:34:25;101207.47;;;34.94
63689;BMP280;54895;40.928;14.480;2022-08-01T06:36:52;101214.53;;;35.21
63689;BMP280;54895;40.928;14.480;2022-08-01T06:39:19;101221.41;;;35.14
63689;BMP280;54895;40.928;14.480;2022-08-01T06:41:46;101224.81;;;35.07
63689;BMP280;54895;40.928;14.480;2022-08-01T06:44:13;101214.56;;;35.25
63689;BMP280;54895;40.928;14.480;2022-08-01T06:46:40;101217.34;;;35.27
63689;BMP280;54895;40.928;14.480;2022-08-01T06:49:07;101213.13;;;35.16
63689;BMP280;54895;40.928;14.480;2022-08-01T06:51:33;101206.38;;;35.59
63689;BMP280;54895;40.928;14.480;2022-08-01T06:54:01;101213.34;;;35.78
63689;BMP280;54895;40.928;14.480;2022-08-01T06:56:28;101230.03;;;36.08
63689;BMP280;54895;40.928;14.480;2022-08-01T06:58:55;101224.47;;;36.57
63689;BMP280;54895;40.928;14.480;2022-08-01T07:01:27;101215.97;;;35.26
63689;BMP280;54895;40.928;14.480;2022-08-01T07:03:55;101216.50;;;34.16
63689;BMP280;54895;40.928;14.480;2022-08-01T07:06:23;101217.84;;;34.11
63689;BMP280;54895;40.928;14.480;2022-08-01T07:08:54;101218.69;;;34.25
63689;BMP280;54895;40.928;14.480;2022-08-01T07:11:21;101226.84;;;33.52
63689;BMP280;54895;40.928;14.480;2022-08-01T07:13:48;101214.75;;;33.81
63689;BMP280;54895;40.928;14.480;2022-08-01T07:16:16;101224.28;;;33.68
63689;BMP280;54895;40.928;14.480;2022-08-01T07:18:43;101207.88;;;33.25
63689;BMP280;54895;40.928;14.480;2022-08-01T07:21:09;101214.28;;;33.41
63689;BMP280;54895;40.928;14.480;2022-08-01T07:23:36;101211.56;;;33.45
63689;BMP280;54895;40.928;14.480;2022-08-01T07:26:04;101220.00;;;33.59
63689;BMP280;54895;40.928;14.480;2022-08-01T07:28:30;101209.91;;;33.78
63689;BMP280;54895;40.928;14.480;2022-08-01T07:30:57;101205.03;;;33.21
63689;BMP280;54895;40.928;14.480;2022-08-01T07:33:23;101213.50;;;33.90
63689;BMP280;54895;40.928;14.480;2022-08-01T07:35:50;101222.38;;;33.81
63689;BMP280;54895;40.928;14.480;2022-08-01T07:38:17;101206.34;;;33.69
63689;BMP280;54895;40.928;14.480;2022-08-01T07:40:45;101210.78;;;33.96
63689;BMP280;54895;40.928;14.480;2022-08-01T07:43:11;101211.81;;;34.28
63689;BMP280;54895;40.928;14.480;2022-08-01T07:45:37;101209.44;;;33.40
63689;BMP280;54895;40.928;14.480;2022-08-01T07:48:05;101207.00;;;33.66
63689;BMP280;54895;40.928;14.480;2022-08-01T07:50:32;101206.50;;;33.26
63689;BMP280;54895;40.928;14.480;2022-08-01T07:52:58;101207.50;;;33.52
63689;BMP280;54895;40.928;14.480;2022-08-01T07:55:25;101205.38;;;34.08
63689;BMP280;54895;40.928;14.480;2022-08-01T07:57:52;101207.25;;;33.86
63689;BMP280;54895;40.928;14.480;2022-08-01T08:00:18;101210.78;;;33.96
63689;BMP280;54895;40.928;14.480;2022-08-01T08:02:45;101212.63;;;34.41
63689;BMP280;54895;40.928;14.480;2022-08-01T08:05:11;101216.66;;;33.67
63689;BMP280;54895;40.928;14.480;2022-08-01T08:07:38;101232.16;;;33.94
63689;BMP280;54895;40.928;14.480;2022-08-01T08:10:05;101213.31;;;33.74
63689;BMP280;54895;40.928;14.480;2022-08-01T08:12:31;101212.88;;;33.38
63689;BMP280;54895;40.928;14.480;2022-08-01T08:14:58;101217.59;;;33.89
63689;BMP280;54895;40.928;14.480;2022-08-01T08:17:26;101209.75;;;34.33
63689;BMP280;54895;40.928;14.480;2022-08-01T08:19:53;101213.50;;;33.90
63689;BMP280;54895;40.928;14.480;2022-08-01T08:22:19;101210.47;;;34.31
63689;BMP280;54895;40.928;14.480;2022-08-01T08:24:46;101208.00;;;33.94
63689;BMP280;54895;40.928;14.480;2022-08-01T08:27:12;101193.19;;;34.31
63689;BMP280;54895;40.928;14.480;2022-08-01T08:29:39;101201.25;;;34.92
63689;BMP280;54895;40.928;14.480;2022-08-01T08:32:05;101202.91;;;34.38
63689;BMP280;54895;40.928;14.480;2022-08-01T08:34:32;101211.44;;;34.68
63689;BMP280;54895;40.928;14.480;2022-08-01T08:36:59;101191.66;;;34.18
63689;BMP280;54895;40.928;14.480;2022-08-01T08:39:26;101198.50;;;34.13
63689;BMP280;54895;40.928;14.480;2022-08-01T08:41:52;101213.81;;;35.13
63689;BMP280;54895;40.928;14.480;2022-08-01T08:44:19;101212.78;;;34.61
63689;BMP280;54895;40.928;14.480;2022-08-01T08:46:51;101218.72;;;35.28
63689;BMP280;54895;40.928;14.480;2022-08-01T08:49:23;101197.06;;;34.85
63689;BMP280;54895;40.928;14.480;2022-08-01T08:51:52;101212.44;;;35.16
63689;BMP280;54895;40.928;14.480;2022-08-01T08:54:21;101204.38;;;35.93
63689;BMP280;54895;40.928;14.480;2022-08-01T08:56:51;101216.16;;;35.96
63689;BMP280;54895;40.928;14.480;2022-08-01T08:59:19;101225.78;;;35.69
63689;BMP280;54895;40.928;14.480;2022-08-01T09:01:45;101205.44;;;35.01
63689;BMP280;54895;40.928;14.480;2022-08-01T09:04:12;101203.59;;;35.51
63689;BMP280;54895;40.928;14.480;2022-08-01T09:10:35;101206.44;;;35.85
63689;BMP280;54895;40.928;14.480;2022-08-01T09:13:12;101205.78;;;36.56
63689;BMP280;54895;40.928;14.480;2022-08-01T09:15:45;101205.06;;;36.79
63689;BMP280;54895;40.928;14.480;2022-08-01T09:18:35;101207.88;;;36.16
63689;BMP280;54895;40.928;14.480;2022-08-01T09:26:09;101190.47;;;35.64
63689;BMP280;54895;40.928;14.480;2022-08-01T09:28:36;101200.97;;;36.07
63689;BMP280;54895;40.928;14.480;2022-08-01T09:31:12;101198.88;;;36.09
63689;BMP280;54895;40.928;14.480;2022-08-01T09:36:17;101187.75;;;36.47
63689;BMP280;54895;40.928;14.480;2022-08-01T09:38:43;101167.66;;;35.65
63689;BMP280;54895;40.928;14.480;2022-08-01T09:41:10;101189.16;;;36.30
63689;BMP280;54895;40.928;14.480;2022-08-01T09:43:37;101181.53;;;36.09
63689;BMP280;54895;40.928;14.480;2022-08-01T09:46:09;101178.78;;;36.31
63689;BMP280;54895;40.928;14.480;2022-08-01T09:48:37;101187.06;;;35.85
63689;BMP280;54895;40.928;14.480;2022-08-01T09:51:06;101185.66;;;36.67
63689;BMP280;54895;40.928;14.480;2022-08-01T09:53:46;101173.78;;;36.99
63689;BMP280;54895;40.928;14.480;2022-08-01T09:56:13;101173.22;;;36.19
63689;BMP280;54895;40.928;14.480;2022-08-01T09:58:52;101174.53;;;36.83
63689;BMP280;54895;40.928;14.480;2022-08-01T10:01:22;101175.97;;;36.56
63689;BMP280;54895;40.928;14.480;2022-08-01T10:04:10;101171.16;;;36.45
63689;BMP280;54895;40.928;14.480;2022-08-01T10:10:14;101170.16;;;37.30
63689;BMP280;54895;40.928;14.480;2022-08-01T10:12:41;101168.38;;;36.27
63689;BMP280;54895;40.928;14.480;2022-08-01T10:15:09;101170.28;;;37.04
63689;BMP280;54895;40.928;14.480;2022-08-01T10:17:38;101165.59;;;36.55
63689;BMP280;54895;40.928;14.480;2022-08-01T10:20:06;101170.28;;;37.04
63689;BMP280;54895;40.928;14.480;2022-08-01T10:22:34;101167.47;;;37.08
63689;BMP280;54895;40.928;14.480;2022-08-01T10:25:04;101165.88;;;37.49
63689;BMP280;54895;40.928;14.480;2022-08-01T10:27:32;101166.22;;;36.73
63689;BMP280;54895;40.928;14.480;2022-08-01T10:30:04;101175.91;;;36.80
63689;BMP280;54895;40.928;14.480;2022-08-01T10:32:32;101177.28;;;36.81
63689;BMP280;54895;40.928;14.480;2022-08-01T10:35:00;101170.44;;;36.56
63689;BMP280;54895;40.928;14.480;2022-08-01T10:37:27;101164.78;;;36.88
63689;BMP280;54895;40.928;14.480;2022-08-01T10:39:54;101154.63;;;37.73
63689;BMP280;54895;40.928;14.480;2022-08-01T10:42:21;101159.25;;;36.88
63689;BMP280;54895;40.928;14.480;2022-08-01T10:44:48;101145.47;;;36.66
63689;BMP280;54895;40.928;14.480;2022-08-01T10:47:42;101161.66;;;37.60
63689;BMP280;54895;40.928;14.480;2022-08-01T10:50:17;101148.31;;;37.76
63689;BMP280;54895;40.928;14.480;2022-08-01T10:53:07;101138.50;;;36.65
63689;BMP280;54895;40.928;14.480;2022-08-01T10:58:13;101139.28;;;36.32
63689;BMP280;54895;40.928;14.480;2022-08-01T11:00:45;101142.59;;;36.90
63689;BMP280;54895;40.928;14.480;2022-08-01T11:03:11;101147.06;;;37.61
63689;BMP280;54895;40.928;14.480;2022-08-01T11:05:39;101141.34;;;36.47
63689;BMP280;54895;40.928;14.480;2022-08-01T11:08:12;101123.88;;;36.83
63689;BMP280;54895;40.928;14.480;2022-08-01T11:10:46;101138.94;;;38.17
63689;BMP280;54895;40.928;14.480;2022-08-01T11:13:13;101145.84;;;37.34
63689;BMP280;54895;40.928;14.480;2022-08-01T11:15:40;101126.28;;;37.52
63689;BMP280;54895;40.928;14.480;2022-08-01T11:20:57;101128.06;;;37.93
63689;BMP280;54895;40.928;14.480;2022-08-01T11:23:25;101118.50;;;37.71
63689;BMP280;54895;40.928;14.480;2022-08-01T11:28:19;101116.78;;;38.09
63689;BMP280;54895;40.928;14.480;2022-08-01T11:30:47;101100.69;;;38.22
63689;BMP280;54895;40.928;14.480;2022-08-01T11:33:16;101086.31;;;37.99
63689;BMP280;54895;40.928;14.480;2022-08-01T11:38:42;101098.97;;;38.51
63689;BMP280;54895;40.928;14.480;2022-08-01T11:41:23;101067.00;;;37.86
63689;BMP280;54895;40.928;14.480;2022-08-01T11:54:34;101094.81;;;39.00
63689;BMP280;54895;40.928;14.480;2022-08-01T11:57:06;101086.44;;;39.02
63689;BMP280;54895;40.928;14.480;2022-08-01T12:02:18;101080.22;;;38.45
63689;BMP280;54895;40.928;14.480;2022-08-01T12:04:46;101069.22;;;38.39
63689;BMP280;54895;40.928;14.480;2022-08-01T12:10:29;101084.34;;;37.88
63689;BMP280;54895;40.928;14.480;2022-08-01T12:13:05;101089.59;;;38.18
63689;BMP280;54895;40.928;14.480;2022-08-01T12:15:36;101077.91;;;38.05
63689;BMP280;54895;40.928;14.480;2022-08-01T12:18:05;101081.16;;;39.28
63689;BMP280;54895;40.928;14.480;2022-08-01T12:20:38;101070.97;;;39.93
63689;BMP280;54895;40.928;14.480;2022-08-01T12:23:06;101071.16;;;39.85
63689;BMP280;54895;40.928;14.480;2022-08-01T12:25:34;101066.81;;;38.63
63689;BMP280;54895;40.928;14.480;2022-08-01T12:28:04;101069.03;;;39.03
63689;BMP280;54895;40.928;14.480;2022-08-01T12:30:31;101068.28;;;39.07
63689;BMP280;54895;40.928;14.480;2022-08-01T12:33:06;101075.03;;;39.20
63689;BMP280;54895;40.928;14.480;2022-08-01T12:35:34;101064.53;;;39.64
63689;BMP280;54895;40.928;14.480;2022-08-01T12:38:03;101061.28;;;39.52
63689;BMP280;54895;40.928;14.480;2022-08-01T12:40:33;101065.09;;;40.09
63689;BMP280;54895;40.928;14.480;2022-08-01T12:43:05;101059.44;;;40.13
63689;BMP280;54895;40.928;14.480;2022-08-01T12:45:39;101065.34;;;39.15
63689;BMP280;54895;40.928;14.480;2022-08-01T12:48:10;101048.91;;;39.81
63689;BMP280;54895;40.928;14.480;2022-08-01T12:50:39;101031.84;;;39.21
63689;BMP280;54895;40.928;14.480;2022-08-01T12:53:08;101048.22;;;37.88
63689;BMP280;54895;40.928;14.480;2022-08-01T12:55:53;101047.75;;;38.30
63689;BMP280;54895;40.928;14.480;2022-08-01T12:58:20;101047.91;;;38.72
63689;BMP280;54895;40.928;14.480;2022-08-01T13:00:49;101047.66;;;38.88
63689;BMP280;54895;40.928;14.480;2022-08-01T13:03:18;101038.88;;;38.71
63689;BMP280;54895;40.928;14.480;2022-08-01T13:05:57;101038.75;;;38.81
63689;BMP280;54895;40.928;14.480;2022-08-01T13:08:29;101032.44;;;39.29
63689;BMP280;54895;40.928;14.480;2022-08-01T13:11:15;101035.69;;;38.99
63689;BMP280;54895;40.928;14.480;2022-08-01T13:16:22;101041.03;;;39.55
63689;BMP280;54895;40.928;14.480;2022-08-01T13:18:51;101034.84;;;39.87
63689;BMP280;54895;40.928;14.480;2022-08-01T13:21:20;101027.91;;;39.50
63689;BMP280;54895;40.928;14.480;2022-08-01T13:29:21;101026.28;;;39.21
63689;BMP280;54895;40.928;14.480;2022-08-01T13:31:49;101027.38;;;38.45
63689;BMP280;54895;40.928;14.480;2022-08-01T13:34:16;101021.91;;;38.89
63689;BMP280;54895;40.928;14.480;2022-08-01T13:36:43;101023.56;;;40.27
63689;BMP280;54895;40.928;14.480;2022-08-01T13:39:09;101014.56;;;39.54
63689;BMP280;54895;40.928;14.480;2022-08-01T13:41:54;101003.91;;;40.35
63689;BMP280;54895;40.928;14.480;2022-08-01T13:44:20;101007.78;;;40.16
63689;BMP280;54895;40.928;14.480;2022-08-01T13:46:47;101015.75;;;40.34
63689;BMP280;54895;40.928;14.480;2022-08-01T13:49:13;101012.97;;;38.83
63689;BMP280;54895;40.928;14.480;2022-08-01T13:51:42;101013.78;;;39.20
63689;BMP280;54895;40.928;14.480;2022-08-01T13:54:08;101013.00;;;39.63
63689;BMP280;54895;40.928;14.480;2022-08-01T13:56:35;101013.78;;;39.20
63689;BMP280;54895;40.928;14.480;2022-08-01T13:59:01;101014.00;;;39.48
63689;BMP280;54895;40.928;14.480;2022-08-01T14:01:28;101013.63;;;39.68
63689;BMP280;54895;40.928;14.480;2022-08-01T14:03:55;101012.25;;;40.03
63689;BMP280;54895;40.928;14.480;2022-08-01T14:10:38;101002.91;;;40.49
63689;BMP280;54895;40.928;14.480;2022-08-01T14:13:06;100999.88;;;39.58
63689;BMP280;54895;40.928;14.480;2022-08-01T14:15:33;100983.72;;;38.86
63689;BMP280;54895;40.928;14.480;2022-08-01T14:18:00;101005.69;;;39.82
63689;BMP280;54895;40.928;14.480;2022-08-01T14:20:27;101001.13;;;39.67
63689;BMP280;54895;40.928;14.480;2022-08-01T14:22:54;100990.59;;;39.69
63689;BMP280;54895;40.928;14.480;2022-08-01T14:25:21;100992.81;;;39.25
63689;BMP280;54895;40.928;14.480;2022-08-01T14:27:48;100998.09;;;39.40
63689;BMP280;54895;40.928;14.480;2022-08-01T14:30:15;100988.78;;;39.90
63689;BMP280;54895;40.928;14.480;2022-08-01T14:32:41;100987.69;;;39.77
63689;BMP280;54895;40.928;14.480;2022-08-01T14:35:08;100986.34;;;39.36
63689;BMP280;54895;40.928;14.480;2022-08-01T14:37:35;100995.38;;;39.38
63689;BMP280;54895;40.928;14.480;2022-08-01T14:40:03;100987.94;;;39.23
63689;BMP280;54895;40.928;14.480;2022-08-01T14:42:35;100991.75;;;39.04
63689;BMP280;54895;40.928;14.480;2022-08-01T14:45:03;100993.88;;;39.43
63689;BMP280;54895;40.928;14.480;2022-08-01T14:47:36;100986.84;;;40.17
63689;BMP280;54895;40.928;14.480;2022-08-01T14:50:05;100984.03;;;40.79
63689;BMP280;54895;40.928;14.480;2022-08-01T14:52:35;100992.69;;;40.37
63689;BMP280;54895;40.928;14.480;2022-08-01T14:55:03;100982.53;;;40.54
63689;BMP280;54895;40.928;14.480;2022-08-01T14:57:31;100983.00;;;41.19
63689;BMP280;54895;40.928;14.480;2022-08-01T14:59:58;100979.16;;;39.85
63689;BMP280;54895;40.928;14.480;2022-08-01T15:02:25;100971.56;;;40.14
63689;BMP280;54895;40.928;14.480;2022-08-01T15:04:51;100971.41;;;39.53
63689;BMP280;54895;40.928;14.480;2022-08-01T15:10:53;100976.91;;;40.26
63689;BMP280;54895;40.928;14.480;2022-08-01T15:13:20;100979.13;;;39.51
63689;BMP280;54895;40.928;14.480;2022-08-01T15:15:46;100978.31;;;39.58
63689;BMP280;54895;40.928;14.480;2022-08-01T15:18:13;100964.63;;;39.04
63689;BMP280;54895;40.928;14.480;2022-08-01T15:20:39;100983.22;;;38.69